sensor_id;sensor_type;location;lat;lon;timestamp;P1;durP1;ratioP1;P2;durP2;ratioP2
59434;SDS011;45241;49.768;8.636;2023-08-06T00:01:58;4.00;;;2.90;;
59434;SDS011;45241;49.768;8.636;2023-08-06T00:04:23;4.38;;;2.72;;
59434;SDS011;45241;49.768;8.636;2023-08-06T00:06:49;4.22;;;2.83;;
59434;SDS011;45241;49.768;8.636;2023-08-06T00:09:14;4.05;;;2.50;;
59434;SDS011;45241;49.768;8.636;2023-08-06T00:11:39;2.30;;;2.10;;
59434;SDS011;45241;49.768;8.636;2023-08-06T00:14:06;2.95;;;2.65;;
59434;SDS011;45241;49.768;8.636;2023-08-06T00:16:31;3.58;;;2.65;;
59434;SDS011;45241;49.768;8.636;2023-08-06T00:18:56;3.13;;;2.42;;
59434;SDS011;45241;49.768;8.636;2023-08-06T00:21:22;8.05;;;3.00;;
59434;SDS011;45241;49.768;8.636;2023-08-06T00:23:47;4.53;;;2.67;;
59434;SDS011;45241;49.768;8.636;2023-08-06T00:26:12;6.65;;;2.53;;
59434;SDS011;45241;49.768;8.636;2023-08-06T00:28:37;4.95;;;2.58;;
59434;SDS011;45241;49.768;8.636;2023-08-06T00:31:03;6.68;;;2.88;;
59434;SDS011;45241;49.768;8.636;2023-08-06T00:33:28;4.80;;;2.67;;
59434;SDS011;45241;49.768;8.636;2023-08-06T00:35:53;3.90;;;2.47;;
59434;SDS011;45241;49.768;8.636;2023-08-06T00:38:19;3.67;;;2.60;;
59434;SDS011;45241;49.768;8.636;2023-08-06T00:40:44;4.93;;;2.65;;
59434;SDS011;45241;49.768;8.636;2023-08-06T00:43:09;6.32;;;2.70;;
59434;SDS011;45241;49.768;8.636;2023-08-06T00:45:35;4.32;;;2.55;;
59434;SDS011;45241;49.768;8.636;2023-08-06T00:48:02;3.72;;;2.60;;
59434;SDS011;45241;49.768;8.636;2023-08-06T00:50:29;4.00;;;2.30;;
59434;SDS011;45241;49.768;8.636;2023-08-06T00:52:55;4.13;;;2.25;;
59434;SDS011;45241;49.768;8.636;2023-08-06T00:55:21;3.03;;;2.00;;
59434;SDS011;45241;49.768;8.636;2023-08-06T00:57:46;3.67;;;2.10;;
59434;SDS011;45241;49.768;8.636;2023-08-06T01:00:12;3.15;;;2.10;;
59434;SDS011;45241;49.768;8.636;2023-08-06T01:02:38;3.75;;;2.08;;
59434;SDS011;45241;49.768;8.636;2023-08-06T01:05:03;3.60;;;2.15;;
59434;SDS011;45241;49.768;8.636;2023-08-06T01:16:15;2.92;;;1.92;;
59434;SDS011;45241;49.768;8.636;2023-08-06T01:18:43;2.45;;;1.80;;
59434;SDS011;45241;49.768;8.636;2023-08-06T01:21:11;3.88;;;2.00;;
59434;SDS011;45241;49.768;8.636;2023-08-06T01:23:37;5.18;;;2.10;;
59434;SDS011;45241;49.768;8.636;2023-08-06T01:26:05;2.17;;;1.63;;
59434;SDS011;45241;49.768;8.636;2023-08-06T01:28:44;4.05;;;1.70;;
59434;SDS011;45241;49.768;8.636;2023-08-06T01:31:27;2.38;;;1.50;;
59434;SDS011;45241;49.768;8.636;2023-08-06T01:34:06;2.50;;;1.73;;
59434;SDS011;45241;49.768;8.636;2023-08-06T01:36:35;2.53;;;1.80;;
59434;SDS011;45241;49.768;8.636;2023-08-06T01:39:01;3.17;;;1.48;;
59434;SDS011;45241;49.768;8.636;2023-08-06T01:41:27;2.85;;;1.75;;
59434;SDS011;45241;49.768;8.636;2023-08-06T01:43:52;3.42;;;1.58;;
59434;SDS011;45241;49.768;8.636;2023-08-06T01:46:17;2.20;;;1.63;;
59434;SDS011;45241;49.768;8.636;2023-08-06T01:48:43;2.45;;;1.60;;
59434;SDS011;45241;49.768;8.636;2023-08-06T01:51:08;2.33;;;1.67;;
59434;SDS011;45241;49.768;8.636;2023-08-06T01:53:33;2.28;;;1.65;;
59434;SDS011;45241;49.768;8.636;2023-08-06T01:55:59;2.72;;;1.60;;
59434;SDS011;45241;49.768;8.636;2023-08-06T01:58:24;5.40;;;1.67;;
59434;SDS011;45241;49.768;8.636;2023-08-06T02:00:49;2.95;;;1.70;;
59434;SDS011;45241;49.768;8.636;2023-08-06T02:03:15;3.03;;;1.35;;
59434;SDS011;45241;49.768;8.636;2023-08-06T02:05:40;3.10;;;1.67;;
59434;SDS011;45241;49.768;8.636;2023-08-06T02:08:05;2.45;;;1.65;;
59434;SDS011;45241;49.768;8.636;2023-08-06T02:10:31;2.65;;;1.77;;
59434;SDS011;45241;49.768;8.636;2023-08-06T02:12:56;2.28;;;1.60;;
59434;SDS011;45241;49.768;8.636;2023-08-06T02:15:21;3.88;;;1.60;;
59434;SDS011;45241;49.768;8.636;2023-08-06T02:17:47;2.60;;;1.67;;
59434;SDS011;45241;49.768;8.636;2023-08-06T02:20:12;4.65;;;1.63;;
59434;SDS011;45241;49.768;8.636;2023-08-06T02:22:37;3.90;;;1.60;;
59434;SDS011;45241;49.768;8.636;2023-08-06T02:25:03;2.78;;;1.83;;
59434;SDS011;45241;49.768;8.636;2023-08-06T02:27:28;2.03;;;1.38;;
59434;SDS011;45241;49.768;8.636;2023-08-06T02:29:53;3.15;;;1.70;;
59434;SDS011;45241;49.768;8.636;2023-08-06T02:32:19;3.80;;;1.70;;
59434;SDS011;45241;49.768;8.636;2023-08-06T02:34:44;4.97;;;1.80;;
59434;SDS011;45241;49.768;8.636;2023-08-06T02:37:09;4.47;;;2.10;;
59434;SDS011;45241;49.768;8.636;2023-08-06T02:39:35;2.97;;;1.80;;
59434;SDS011;45241;49.768;8.636;2023-08-06T02:42:04;2.07;;;1.50;;
59434;SDS011;45241;49.768;8.636;2023-08-06T02:44:30;3.13;;;1.73;;
59434;SDS011;45241;49.768;8.636;2023-08-06T02:46:55;2.25;;;1.70;;
59434;SDS011;45241;49.768;8.636;2023-08-06T02:49:20;4.32;;;1.48;;
59434;SDS011;45241;49.768;8.636;2023-08-06T02:51:46;3.63;;;1.60;;
59434;SDS011;45241;49.768;8.636;2023-08-06T02:54:11;3.22;;;1.92;;
59434;SDS011;45241;49.768;8.636;2023-08-06T02:56:36;3.72;;;2.13;;
59434;SDS011;45241;49.768;8.636;2023-08-06T02:59:02;2.47;;;1.90;;
59434;SDS011;45241;49.768;8.636;2023-08-06T03:01:27;2.03;;;1.52;;
59434;SDS011;45241;49.768;8.636;2023-08-06T03:03:53;4.25;;;1.75;;
59434;SDS011;45241;49.768;8.636;2023-08-06T03:06:19;4.05;;;1.60;;
59434;SDS011;45241;49.768;8.636;2023-08-06T03:08:44;3.70;;;1.70;;
59434;SDS011;45241;49.768;8.636;2023-08-06T03:11:09;3.90;;;1.58;;
59434;SDS011;45241;49.768;8.636;2023-08-06T03:13:35;3.15;;;1.65;;
59434;SDS011;45241;49.768;8.636;2023-08-06T03:16:00;3.70;;;2.00;;
59434;SDS011;45241;49.768;8.636;2023-08-06T03:18:25;5.35;;;1.88;;
59434;SDS011;45241;49.768;8.636;2023-08-06T03:20:51;3.85;;;1.83;;
59434;SDS011;45241;49.768;8.636;2023-08-06T03:23:17;3.47;;;1.42;;
59434;SDS011;45241;49.768;8.636;2023-08-06T03:25:42;3.03;;;1.70;;
59434;SDS011;45241;49.768;8.636;2023-08-06T03:28:08;3.78;;;1.88;;
59434;SDS011;45241;49.768;8.636;2023-08-06T03:30:33;3.63;;;2.20;;
59434;SDS011;45241;49.768;8.636;2023-08-06T03:32:59;2.30;;;1.60;;
59434;SDS011;45241;49.768;8.636;2023-08-06T03:35:24;3.75;;;1.85;;
59434;SDS011;45241;49.768;8.636;2023-08-06T03:37:49;4.18;;;2.03;;
59434;SDS011;45241;49.768;8.636;2023-08-06T03:40:15;3.25;;;1.48;;
59434;SDS011;45241;49.768;8.636;2023-08-06T03:42:40;3.58;;;1.67;;
59434;SDS011;45241;49.768;8.636;2023-08-06T03:45:05;2.40;;;1.67;;
59434;SDS011;45241;49.768;8.636;2023-08-06T03:47:32;3.75;;;1.70;;
59434;SDS011;45241;49.768;8.636;2023-08-06T03:49:57;3.65;;;1.95;;
59434;SDS011;45241;49.768;8.636;2023-08-06T03:52:22;4.60;;;1.85;;
59434;SDS011;45241;49.768;8.636;2023-08-06T03:54:48;2.33;;;1.92;;
59434;SDS011;45241;49.768;8.636;2023-08-06T03:57:13;4.65;;;2.00;;
59434;SDS011;45241;49.768;8.636;2023-08-06T03:59:38;3.95;;;2.13;;
59434;SDS011;45241;49.768;8.636;2023-08-06T04:02:04;3.50;;;1.90;;
59434;SDS011;45241;49.768;8.636;2023-08-06T04:04:29;2.75;;;1.70;;
59434;SDS011;45241;49.768;8.636;2023-08-06T04:06:54;4.38;;;1.90;;
59434;SDS011;45241;49.768;8.636;2023-08-06T04:09:20;4.88;;;2.47;;
59434;SDS011;45241;49.768;8.636;2023-08-06T04:11:45;2.97;;;1.60;;
59434;SDS011;45241;49.768;8.636;2023-08-06T04:14:10;3.58;;;1.88;;
59434;SDS011;45241;49.768;8.636;2023-08-06T04:16:36;6.05;;;1.92;;
59434;SDS011;45241;49.768;8.636;2023-08-06T04:19:01;3.55;;;2.10;;
59434;SDS011;45241;49.768;8.636;2023-08-06T04:21:26;2.35;;;1.77;;
59434;SDS011;45241;49.768;8.636;2023-08-06T04:23:51;3.60;;;1.63;;
59434;SDS011;45241;49.768;8.636;2023-08-06T04:26:17;3.95;;;2.00;;
59434;SDS011;45241;49.768;8.636;2023-08-06T04:28:42;8.23;;;2.05;;
59434;SDS011;45241;49.768;8.636;2023-08-06T04:31:07;3.53;;;2.00;;
59434;SDS011;45241;49.768;8.636;2023-08-06T04:33:33;4.22;;;1.90;;
59434;SDS011;45241;49.768;8.636;2023-08-06T04:35:59;4.03;;;1.73;;
59434;SDS011;45241;49.768;8.636;2023-08-06T04:38:24;5.03;;;1.98;;
59434;SDS011;45241;49.768;8.636;2023-08-06T04:40:50;3.72;;;1.60;;
59434;SDS011;45241;49.768;8.636;2023-08-06T04:43:16;3.72;;;1.70;;
59434;SDS011;45241;49.768;8.636;2023-08-06T04:45:48;5.45;;;1.48;;
59434;SDS011;45241;49.768;8.636;2023-08-06T04:48:14;3.78;;;1.30;;
59434;SDS011;45241;49.768;8.636;2023-08-06T04:50:43;2.28;;;1.30;;
59434;SDS011;45241;49.768;8.636;2023-08-06T04:53:11;1.95;;;1.20;;
59434;SDS011;45241;49.768;8.636;2023-08-06T04:55:37;3.30;;;1.48;;
59434;SDS011;45241;49.768;8.636;2023-08-06T04:58:03;3.15;;;1.60;;
59434;SDS011;45241;49.768;8.636;2023-08-06T05:00:28;2.20;;;1.40;;
59434;SDS011;45241;49.768;8.636;2023-08-06T05:02:53;4.55;;;1.50;;
59434;SDS011;45241;49.768;8.636;2023-08-06T05:05:19;3.63;;;1.73;;
59434;SDS011;45241;49.768;8.636;2023-08-06T05:07:45;2.75;;;1.70;;
59434;SDS011;45241;49.768;8.636;2023-08-06T05:10:13;4.05;;;1.50;;
59434;SDS011;45241;49.768;8.636;2023-08-06T05:12:38;3.63;;;1.52;;
59434;SDS011;45241;49.768;8.636;2023-08-06T05:15:04;3.05;;;1.88;;
59434;SDS011;45241;49.768;8.636;2023-08-06T05:17:29;2.95;;;1.63;;
59434;SDS011;45241;49.768;8.636;2023-08-06T05:19:55;2.22;;;1.60;;
59434;SDS011;45241;49.768;8.636;2023-08-06T05:22:20;4.68;;;1.83;;
59434;SDS011;45241;49.768;8.636;2023-08-06T05:24:45;3.75;;;2.00;;
59434;SDS011;45241;49.768;8.636;2023-08-06T05:27:11;3.20;;;1.73;;
59434;SDS011;45241;49.768;8.636;2023-08-06T05:29:36;2.53;;;1.55;;
59434;SDS011;45241;49.768;8.636;2023-08-06T05:32:01;2.67;;;1.60;;
59434;SDS011;45241;49.768;8.636;2023-08-06T05:34:27;6.18;;;2.13;;
59434;SDS011;45241;49.768;8.636;2023-08-06T05:36:52;2.85;;;1.90;;
59434;SDS011;45241;49.768;8.636;2023-08-06T05:39:17;2.38;;;1.65;;
59434;SDS011;45241;49.768;8.636;2023-08-06T05:41:43;3.33;;;1.50;;
59434;SDS011;45241;49.768;8.636;2023-08-06T05:44:08;3.95;;;1.67;;
59434;SDS011;45241;49.768;8.636;2023-08-06T05:46:33;3.08;;;1.40;;
59434;SDS011;45241;49.768;8.636;2023-08-06T05:48:59;3.28;;;1.65;;
59434;SDS011;45241;49.768;8.636;2023-08-06T05:51:25;4.13;;;1.50;;
59434;SDS011;45241;49.768;8.636;2023-08-06T05:53:51;2.60;;;1.40;;
59434;SDS011;45241;49.768;8.636;2023-08-06T05:56:16;3.75;;;1.42;;
59434;SDS011;45241;49.768;8.636;2023-08-06T05:58:42;4.80;;;1.35;;
59434;SDS011;45241;49.768;8.636;2023-08-06T06:01:07;3.45;;;1.08;;
59434;SDS011;45241;49.768;8.636;2023-08-06T06:03:32;2.20;;;1.20;;
59434;SDS011;45241;49.768;8.636;2023-08-06T06:05:58;4.90;;;1.10;;
59434;SDS011;45241;49.768;8.636;2023-08-06T06:08:26;3.53;;;1.10;;
59434;SDS011;45241;49.768;8.636;2023-08-06T06:10:51;2.80;;;1.00;;
59434;SDS011;45241;49.768;8.636;2023-08-06T06:13:16;2.47;;;1.13;;
59434;SDS011;45241;49.768;8.636;2023-08-06T06:15:41;1.20;;;0.98;;
59434;SDS011;45241;49.768;8.636;2023-08-06T06:18:07;1.65;;;1.00;;
59434;SDS011;45241;49.768;8.636;2023-08-06T06:20:32;1.50;;;0.85;;
59434;SDS011;45241;49.768;8.636;2023-08-06T06:22:58;1.65;;;0.90;;
59434;SDS011;45241;49.768;8.636;2023-08-06T06:25:23;2.70;;;0.90;;
59434;SDS011;45241;49.768;8.636;2023-08-06T06:27:49;2.78;;;0.77;;
59434;SDS011;45241;49.768;8.636;2023-08-06T06:30:14;3.03;;;0.90;;
59434;SDS011;45241;49.768;8.636;2023-08-06T06:32:39;1.58;;;0.80;;
59434;SDS011;45241;49.768;8.636;2023-08-06T06:35:05;1.08;;;0.80;;
59434;SDS011;45241;49.768;8.636;2023-08-06T06:37:31;2.78;;;1.00;;
59434;SDS011;45241;49.768;8.636;2023-08-06T06:39:56;1.67;;;1.23;;
59434;SDS011;45241;49.768;8.636;2023-08-06T06:42:22;0.93;;;0.80;;
59434;SDS011;45241;49.768;8.636;2023-08-06T06:44:47;2.30;;;1.13;;
59434;SDS011;45241;49.768;8.636;2023-08-06T06:47:13;2.80;;;1.15;;
59434;SDS011;45241;49.768;8.636;2023-08-06T06:49:38;2.30;;;1.20;;
59434;SDS011;45241;49.768;8.636;2023-08-06T06:52:04;5.97;;;1.48;;
59434;SDS011;45241;49.768;8.636;2023-08-06T06:54:29;2.13;;;1.00;;
59434;SDS011;45241;49.768;8.636;2023-08-06T06:56:55;2.20;;;1.10;;
59434;SDS011;45241;49.768;8.636;2023-08-06T06:59:20;2.33;;;1.45;;
59434;SDS011;45241;49.768;8.636;2023-08-06T07:01:45;3.00;;;1.13;;
59434;SDS011;45241;49.768;8.636;2023-08-06T07:04:11;2.60;;;1.40;;
59434;SDS011;45241;49.768;8.636;2023-08-06T07:06:36;1.80;;;1.23;;
59434;SDS011;45241;49.768;8.636;2023-08-06T07:09:04;2.35;;;1.10;;
59434;SDS011;45241;49.768;8.636;2023-08-06T07:11:29;2.63;;;1.13;;
59434;SDS011;45241;49.768;8.636;2023-08-06T07:13:58;1.98;;;1.20;;
59434;SDS011;45241;49.768;8.636;2023-08-06T07:16:24;2.83;;;1.17;;
59434;SDS011;45241;49.768;8.636;2023-08-06T07:18:53;4.13;;;1.20;;
59434;SDS011;45241;49.768;8.636;2023-08-06T07:21:19;2.85;;;1.45;;
59434;SDS011;45241;49.768;8.636;2023-08-06T07:23:45;2.55;;;1.00;;
59434;SDS011;45241;49.768;8.636;2023-08-06T07:26:10;1.90;;;1.02;;
59434;SDS011;45241;49.768;8.636;2023-08-06T07:28:36;1.85;;;0.80;;
59434;SDS011;45241;49.768;8.636;2023-08-06T07:31:02;3.67;;;1.20;;
59434;SDS011;45241;49.768;8.636;2023-08-06T07:33:28;1.70;;;0.93;;
59434;SDS011;45241;49.768;8.636;2023-08-06T07:35:54;4.72;;;1.00;;
59434;SDS011;45241;49.768;8.636;2023-08-06T07:38:19;3.30;;;1.10;;
59434;SDS011;45241;49.768;8.636;2023-08-06T07:40:44;2.88;;;1.17;;
59434;SDS011;45241;49.768;8.636;2023-08-06T07:43:10;3.70;;;0.82;;
59434;SDS011;45241;49.768;8.636;2023-08-06T07:45:35;4.75;;;1.10;;
59434;SDS011;45241;49.768;8.636;2023-08-06T07:48:02;2.55;;;1.10;;
59434;SDS011;45241;49.768;8.636;2023-08-06T07:50:27;2.70;;;1.40;;
59434;SDS011;45241;49.768;8.636;2023-08-06T07:52:52;3.15;;;1.05;;
59434;SDS011;45241;49.768;8.636;2023-08-06T07:55:18;2.38;;;1.23;;
59434;SDS011;45241;49.768;8.636;2023-08-06T07:57:43;2.42;;;0.90;;
59434;SDS011;45241;49.768;8.636;2023-08-06T08:00:08;2.25;;;1.30;;
59434;SDS011;45241;49.768;8.636;2023-08-06T08:02:34;3.47;;;1.20;;
59434;SDS011;45241;49.768;8.636;2023-08-06T08:05:00;1.98;;;0.82;;
59434;SDS011;45241;49.768;8.636;2023-08-06T08:07:25;2.83;;;0.98;;
59434;SDS011;45241;49.768;8.636;2023-08-06T08:09:53;3.08;;;1.00;;
59434;SDS011;45241;49.768;8.636;2023-08-06T08:12:18;2.88;;;0.73;;
59434;SDS011;45241;49.768;8.636;2023-08-06T08:14:43;1.80;;;0.80;;
59434;SDS011;45241;49.768;8.636;2023-08-06T08:17:10;2.03;;;0.60;;
59434;SDS011;45241;49.768;8.636;2023-08-06T08:19:36;2.92;;;0.80;;
59434;SDS011;45241;49.768;8.636;2023-08-06T08:22:01;1.95;;;0.60;;
59434;SDS011;45241;49.768;8.636;2023-08-06T08:24:26;1.60;;;0.88;;
59434;SDS011;45241;49.768;8.636;2023-08-06T08:26:52;3.65;;;1.25;;
59434;SDS011;45241;49.768;8.636;2023-08-06T08:29:21;1.80;;;0.57;;
59434;SDS011;45241;49.768;8.636;2023-08-06T08:31:46;3.03;;;0.70;;
59434;SDS011;45241;49.768;8.636;2023-08-06T08:34:14;0.85;;;0.50;;
59434;SDS011;45241;49.768;8.636;2023-08-06T08:36:40;0.60;;;0.55;;
59434;SDS011;45241;49.768;8.636;2023-08-06T08:39:05;0.68;;;0.68;;
59434;SDS011;45241;49.768;8.636;2023-08-06T08:41:31;2.78;;;1.00;;
59434;SDS011;45241;49.768;8.636;2023-08-06T08:43:58;2.47;;;0.90;;
59434;SDS011;45241;49.768;8.636;2023-08-06T08:46:27;2.25;;;0.90;;
59434;SDS011;45241;49.768;8.636;2023-08-06T08:48:55;1.85;;;1.30;;
59434;SDS011;45241;49.768;8.636;2023-08-06T08:51:22;1.63;;;1.00;;
59434;SDS011;45241;49.768;8.636;2023-08-06T08:53:48;1.95;;;1.25;;
59434;SDS011;45241;49.768;8.636;2023-08-06T08:56:15;2.20;;;0.70;;
59434;SDS011;45241;49.768;8.636;2023-08-06T08:58:41;2.38;;;0.73;;
59434;SDS011;45241;49.768;8.636;2023-08-06T09:01:07;2.35;;;1.15;;
59434;SDS011;45241;49.768;8.636;2023-08-06T09:03:33;0.77;;;0.40;;
59434;SDS011;45241;49.768;8.636;2023-08-06T09:06:00;1.27;;;0.47;;
59434;SDS011;45241;49.768;8.636;2023-08-06T09:08:27;1.15;;;0.43;;
59434;SDS011;45241;49.768;8.636;2023-08-06T09:10:59;2.95;;;0.50;;
59434;SDS011;45241;49.768;8.636;2023-08-06T09:13:26;1.58;;;0.50;;
59434;SDS011;45241;49.768;8.636;2023-08-06T09:15:52;0.60;;;0.40;;
59434;SDS011;45241;49.768;8.636;2023-08-06T09:18:24;1.05;;;0.47;;
59434;SDS011;45241;49.768;8.636;2023-08-06T09:20:51;1.02;;;0.60;;
59434;SDS011;45241;49.768;8.636;2023-08-06T09:23:17;2.22;;;0.57;;
59434;SDS011;45241;49.768;8.636;2023-08-06T09:25:42;0.43;;;0.40;;
59434;SDS011;45241;49.768;8.636;2023-08-06T09:28:07;1.88;;;0.70;;
59434;SDS011;45241;49.768;8.636;2023-08-06T09:30:35;0.88;;;0.63;;
59434;SDS011;45241;49.768;8.636;2023-08-06T09:33:01;0.93;;;0.70;;
59434;SDS011;45241;49.768;8.636;2023-08-06T09:35:30;2.55;;;0.60;;
59434;SDS011;45241;49.768;8.636;2023-08-06T09:40:35;1.70;;;0.60;;
59434;SDS011;45241;49.768;8.636;2023-08-06T09:43:02;1.13;;;0.50;;
59434;SDS011;45241;49.768;8.636;2023-08-06T09:45:31;1.20;;;0.47;;
59434;SDS011;45241;49.768;8.636;2023-08-06T09:48:05;0.73;;;0.38;;
59434;SDS011;45241;49.768;8.636;2023-08-06T09:50:32;0.50;;;0.35;;
59434;SDS011;45241;49.768;8.636;2023-08-06T09:53:00;0.30;;;0.30;;
59434;SDS011;45241;49.768;8.636;2023-08-06T09:55:26;1.48;;;0.30;;
59434;SDS011;45241;49.768;8.636;2023-08-06T09:57:52;0.90;;;0.40;;
59434;SDS011;45241;49.768;8.636;2023-08-06T10:00:18;0.50;;;0.30;;
59434;SDS011;45241;49.768;8.636;2023-08-06T10:02:45;1.33;;;0.30;;
59434;SDS011;45241;49.768;8.636;2023-08-06T10:05:10;1.45;;;0.20;;
59434;SDS011;45241;49.768;8.636;2023-08-06T10:07:36;1.17;;;0.30;;
59434;SDS011;45241;49.768;8.636;2023-08-06T10:10:04;2.47;;;0.15;;
59434;SDS011;45241;49.768;8.636;2023-08-06T10:12:31;0.63;;;0.20;;
59434;SDS011;45241;49.768;8.636;2023-08-06T10:14:59;0.43;;;0.10;;
59434;SDS011;45241;49.768;8.636;2023-08-06T10:17:28;0.43;;;0.20;;
59434;SDS011;45241;49.768;8.636;2023-08-06T10:19:55;0.35;;;0.10;;
59434;SDS011;45241;49.768;8.636;2023-08-06T10:22:21;0.45;;;0.20;;
59434;SDS011;45241;49.768;8.636;2023-08-06T10:24:52;0.85;;;0.13;;
59434;SDS011;45241;49.768;8.636;2023-08-06T10:27:19;0.00;;;0.00;;
59434;SDS011;45241;49.768;8.636;2023-08-06T10:29:56;0.55;;;0.10;;
59434;SDS011;45241;49.768;8.636;2023-08-06T10:32:46;0.10;;;0.10;;
59434;SDS011;45241;49.768;8.636;2023-08-06T10:35:27;0.05;;;0.05;;
59434;SDS011;45241;49.768;8.636;2023-08-06T10:37:57;0.10;;;0.10;;
59434;SDS011;45241;49.768;8.636;2023-08-06T10:40:23;0.25;;;0.10;;
59434;SDS011;45241;49.768;8.636;2023-08-06T10:42:49;0.10;;;0.10;;
59434;SDS011;45241;49.768;8.636;2023-08-06T10:45:15;0.55;;;0.20;;
59434;SDS011;45241;49.768;8.636;2023-08-06T10:47:42;1.35;;;0.20;;
59434;SDS011;45241;49.768;8.636;2023-08-06T10:50:11;0.10;;;0.10;;
59434;SDS011;45241;49.768;8.636;2023-08-06T10:52:38;0.57;;;0.30;;
59434;SDS011;45241;49.768;8.636;2023-08-06T10:55:04;3.00;;;0.20;;
59434;SDS011;45241;49.768;8.636;2023-08-06T10:57:30;1.02;;;0.13;;
59434;SDS011;45241;49.768;8.636;2023-08-06T10:59:55;0.90;;;0.15;;
59434;SDS011;45241;49.768;8.636;2023-08-06T11:02:20;0.50;;;0.20;;
59434;SDS011;45241;49.768;8.636;2023-08-06T11:04:46;0.45;;;0.10;;
59434;SDS011;45241;49.768;8.636;2023-08-06T11:07:13;0.68;;;0.20;;
59434;SDS011;45241;49.768;8.636;2023-08-06T11:09:38;2.00;;;0.20;;
59434;SDS011;45241;49.768;8.636;2023-08-06T11:12:08;0.88;;;0.20;;
59434;SDS011;45241;49.768;8.636;2023-08-06T11:14:35;1.55;;;0.10;;
59434;SDS011;45241;49.768;8.636;2023-08-06T11:17:00;0.65;;;0.15;;
59434;SDS011;45241;49.768;8.636;2023-08-06T11:19:26;0.00;;;0.00;;
59434;SDS011;45241;49.768;8.636;2023-08-06T11:21:51;0.10;;;0.05;;
59434;SDS011;45241;49.768;8.636;2023-08-06T11:24:17;0.98;;;0.10;;
59434;SDS011;45241;49.768;8.636;2023-08-06T11:26:42;1.25;;;0.10;;
59434;SDS011;45241;49.768;8.636;2023-08-06T11:29:09;0.10;;;0.10;;
59434;SDS011;45241;49.768;8.636;2023-08-06T11:31:35;0.10;;;0.08;;
59434;SDS011;45241;49.768;8.636;2023-08-06T11:34:01;0.10;;;0.10;;
59434;SDS011;45241;49.768;8.636;2023-08-06T11:36:33;0.75;;;0.20;;
59434;SDS011;45241;49.768;8.636;2023-08-06T11:39:01;0.20;;;0.20;;
59434;SDS011;45241;49.768;8.636;2023-08-06T11:41:29;0.68;;;0.30;;
59434;SDS011;45241;49.768;8.636;2023-08-06T11:43:55;0.30;;;0.30;;
59434;SDS011;45241;49.768;8.636;2023-08-06T11:46:20;0.98;;;0.25;;
59434;SDS011;45241;49.768;8.636;2023-08-06T11:48:51;0.10;;;0.10;;
59434;SDS011;45241;49.768;8.636;2023-08-06T11:51:17;1.02;;;0.30;;
59434;SDS011;45241;49.768;8.636;2023-08-06T11:53:46;0.20;;;0.20;;
59434;SDS011;45241;49.768;8.636;2023-08-06T11:56:14;0.95;;;0.40;;
59434;SDS011;45241;49.768;8.636;2023-08-06T11:58:40;0.30;;;0.28;;
59434;SDS011;45241;49.768;8.636;2023-08-06T12:01:06;0.88;;;0.30;;
59434;SDS011;45241;49.768;8.636;2023-08-06T12:03:31;0.20;;;0.20;;
59434;SDS011;45241;49.768;8.636;2023-08-06T12:05:57;0.73;;;0.30;;
59434;SDS011;45241;49.768;8.636;2023-08-06T12:08:26;0.28;;;0.22;;
59434;SDS011;45241;49.768;8.636;2023-08-06T12:10:52;1.08;;;0.30;;
59434;SDS011;45241;49.768;8.636;2023-08-06T12:13:18;0.65;;;0.25;;
59434;SDS011;45241;49.768;8.636;2023-08-06T12:15:44;1.33;;;0.40;;
59434;SDS011;45241;49.768;8.636;2023-08-06T12:18:10;0.35;;;0.30;;
59434;SDS011;45241;49.768;8.636;2023-08-06T12:20:35;0.20;;;0.20;;
59434;SDS011;45241;49.768;8.636;2023-08-06T12:23:01;0.80;;;0.40;;
59434;SDS011;45241;49.768;8.636;2023-08-06T12:25:26;0.95;;;0.63;;
59434;SDS011;45241;49.768;8.636;2023-08-06T12:27:51;0.43;;;0.30;;
59434;SDS011;45241;49.768;8.636;2023-08-06T12:30:17;0.40;;;0.32;;
59434;SDS011;45241;49.768;8.636;2023-08-06T12:32:42;0.50;;;0.47;;
59434;SDS011;45241;49.768;8.636;2023-08-06T12:35:07;0.77;;;0.65;;
59434;SDS011;45241;49.768;8.636;2023-08-06T12:37:33;0.60;;;0.50;;
59434;SDS011;45241;49.768;8.636;2023-08-06T12:39:59;0.50;;;0.40;;
59434;SDS011;45241;49.768;8.636;2023-08-06T12:42:25;0.40;;;0.40;;
59434;SDS011;45241;49.768;8.636;2023-08-06T12:44:50;1.27;;;0.60;;
59434;SDS011;45241;49.768;8.636;2023-08-06T12:47:17;1.60;;;0.60;;
59434;SDS011;45241;49.768;8.636;2023-08-06T12:49:42;1.90;;;0.40;;
59434;SDS011;45241;49.768;8.636;2023-08-06T12:52:08;2.03;;;0.60;;
59434;SDS011;45241;49.768;8.636;2023-08-06T12:54:34;0.85;;;0.40;;
59434;SDS011;45241;49.768;8.636;2023-08-06T12:57:02;0.80;;;0.60;;
59434;SDS011;45241;49.768;8.636;2023-08-06T12:59:28;0.43;;;0.30;;
59434;SDS011;45241;49.768;8.636;2023-08-06T13:01:53;0.98;;;0.40;;
59434;SDS011;45241;49.768;8.636;2023-08-06T13:04:18;2.08;;;0.38;;
59434;SDS011;45241;49.768;8.636;2023-08-06T13:06:43;0.22;;;0.22;;
59434;SDS011;45241;49.768;8.636;2023-08-06T13:09:09;1.33;;;0.30;;
59434;SDS011;45241;49.768;8.636;2023-08-06T13:11:35;1.25;;;0.30;;
59434;SDS011;45241;49.768;8.636;2023-08-06T13:14:10;0.65;;;0.32;;
59434;SDS011;45241;49.768;8.636;2023-08-06T13:16:37;0.65;;;0.50;;
59434;SDS011;45241;49.768;8.636;2023-08-06T13:19:05;1.30;;;0.38;;
59434;SDS011;45241;49.768;8.636;2023-08-06T13:21:31;0.90;;;0.40;;
59434;SDS011;45241;49.768;8.636;2023-08-06T13:23:58;0.30;;;0.30;;
59434;SDS011;45241;49.768;8.636;2023-08-06T13:26:24;1.00;;;0.30;;
59434;SDS011;45241;49.768;8.636;2023-08-06T13:28:49;0.52;;;0.30;;
59434;SDS011;45241;49.768;8.636;2023-08-06T13:31:15;2.72;;;0.40;;
59434;SDS011;45241;49.768;8.636;2023-08-06T13:33:41;0.55;;;0.30;;
59434;SDS011;45241;49.768;8.636;2023-08-06T13:36:06;1.27;;;0.35;;
59434;SDS011;45241;49.768;8.636;2023-08-06T13:38:31;0.55;;;0.30;;
59434;SDS011;45241;49.768;8.636;2023-08-06T13:40:56;1.70;;;0.35;;
59434;SDS011;45241;49.768;8.636;2023-08-06T13:43:22;0.75;;;0.20;;
59434;SDS011;45241;49.768;8.636;2023-08-06T13:45:47;1.73;;;0.20;;
59434;SDS011;45241;49.768;8.636;2023-08-06T13:48:13;1.08;;;0.30;;
59434;SDS011;45241;49.768;8.636;2023-08-06T13:50:38;1.23;;;0.30;;
59434;SDS011;45241;49.768;8.636;2023-08-06T13:53:03;0.95;;;0.20;;
59434;SDS011;45241;49.768;8.636;2023-08-06T13:55:29;1.65;;;0.30;;
59434;SDS011;45241;49.768;8.636;2023-08-06T13:57:55;1.15;;;0.30;;
59434;SDS011;45241;49.768;8.636;2023-08-06T14:00:20;0.20;;;0.20;;
59434;SDS011;45241;49.768;8.636;2023-08-06T14:02:46;0.88;;;0.30;;
59434;SDS011;45241;49.768;8.636;2023-08-06T14:05:11;1.58;;;0.40;;
59434;SDS011;45241;49.768;8.636;2023-08-06T14:07:36;0.85;;;0.30;;
59434;SDS011;45241;49.768;8.636;2023-08-06T14:10:01;0.63;;;0.25;;
59434;SDS011;45241;49.768;8.636;2023-08-06T14:12:27;0.50;;;0.30;;
59434;SDS011;45241;49.768;8.636;2023-08-06T14:14:52;0.85;;;0.40;;
59434;SDS011;45241;49.768;8.636;2023-08-06T14:17:18;1.67;;;0.30;;
59434;SDS011;45241;49.768;8.636;2023-08-06T14:19:43;0.30;;;0.25;;
59434;SDS011;45241;49.768;8.636;2023-08-06T14:22:08;0.43;;;0.20;;
59434;SDS011;45241;49.768;8.636;2023-08-06T14:24:33;0.43;;;0.22;;
59434;SDS011;45241;49.768;8.636;2023-08-06T14:26:59;0.28;;;0.22;;
59434;SDS011;45241;49.768;8.636;2023-08-06T14:29:24;0.20;;;0.20;;
59434;SDS011;45241;49.768;8.636;2023-08-06T14:31:50;0.45;;;0.30;;
59434;SDS011;45241;49.768;8.636;2023-08-06T14:34:16;0.50;;;0.20;;
59434;SDS011;45241;49.768;8.636;2023-08-06T14:36:41;1.05;;;0.30;;
59434;SDS011;45241;49.768;8.636;2023-08-06T14:39:06;0.38;;;0.15;;
59434;SDS011;45241;49.768;8.636;2023-08-06T14:41:32;0.40;;;0.30;;
59434;SDS011;45241;49.768;8.636;2023-08-06T14:43:57;0.85;;;0.20;;
59434;SDS011;45241;49.768;8.636;2023-08-06T14:46:22;1.08;;;0.40;;
59434;SDS011;45241;49.768;8.636;2023-08-06T14:48:48;0.52;;;0.20;;
59434;SDS011;45241;49.768;8.636;2023-08-06T14:51:13;0.95;;;0.22;;
59434;SDS011;45241;49.768;8.636;2023-08-06T14:53:38;0.63;;;0.20;;